Time;durP1;ratioP1;P1;durP2;ratioP2;P2;SDS_P1;SDS_P2;PMS_P1;PMS_P2;Temp;Humidity;BMP_temperature;BMP_pressure;BME280_temperature;BME280_humidity;BME280_pressure;Samples;Min_cycle;Max_cycle;Signal;HPM_P1;HPM_P2
2022/01/17 00:00:22;;;;;;;52.42;24.10;;;;;;;4.57;94.55;101196.22;5082568;28;20030;-88
2022/01/17 00:02:49;;;;;;;39.05;24.35;;;;;;;4.69;93.84;101192.00;5068044;28;20119;-88
2022/01/17 00:05:16;;;;;;;45.65;25.55;;;;;;;4.72;93.67;101199.72;5068311;28;20056;-87
2022/01/17 00:07:41;;;;;;;50.67;26.23;;;;;;;4.52;93.91;101194.94;5069359;28;20051;-87
2022/01/17 00:10:07;;;;;;;47.85;25.13;;;;;;;4.77;93.55;101208.13;5068072;28;20107;-87
2022/01/17 00:12:36;;;;;;;51.03;22.80;;;;;;;4.68;93.92;101209.22;5069074;28;20043;-87
2022/01/17 00:20:40;;;;;;;48.13;26.92;;;;;;;4.68;94.61;101220.03;5092905;28;20356;-87
2022/01/17 00:23:06;;;;;;;49.03;26.05;;;;;;;4.84;93.36;101228.97;5087988;28;20047;-89
2022/01/17 00:25:31;;;;;;;63.10;32.65;;;;;;;4.53;94.78;101234.44;5087698;28;20020;-88
2022/01/17 00:27:56;;;;;;;54.30;26.27;;;;;;;4.73;93.90;101227.59;5088452;27;20471;-88
2022/01/17 00:30:22;;;;;;;44.53;25.98;;;;;;;4.60;93.90;101239.06;5081455;28;20098;-87
2022/01/17 00:32:47;;;;;;;48.97;25.50;;;;;;;4.73;93.77;101239.25;5067543;28;20032;-88
2022/01/17 00:35:12;;;;;;;43.80;21.38;;;;;;;4.89;93.29;101223.81;5067078;28;20055;-87
2022/01/17 00:37:38;;;;;;;47.88;26.17;;;;;;;4.84;92.76;101218.16;5067574;28;20037;-88
2022/01/17 00:40:05;;;;;;;41.40;25.20;;;;;;;4.67;93.96;101215.69;5068279;28;20035;-87
2022/01/17 00:42:30;;;;;;;42.08;23.70;;;;;;;4.77;92.78;101212.66;5067376;28;20033;-88
2022/01/17 00:47:41;;;;;;;55.22;26.48;;;;;;;4.66;94.27;101200.47;5086256;28;20039;-88
2022/01/17 00:50:07;;;;;;;47.08;25.83;;;;;;;4.87;93.42;101206.97;5087759;28;20028;-87
2022/01/17 00:52:33;;;;;;;45.30;24.92;;;;;;;4.62;94.31;101201.88;5087798;28;20131;-87
2022/01/17 00:54:58;;;;;;;52.75;28.88;;;;;;;4.47;93.72;101213.56;5088182;28;20788;-87
2022/01/17 00:57:23;;;;;;;49.75;25.88;;;;;;;4.57;93.88;101229.50;5088425;27;20197;-88
2022/01/17 00:59:49;;;;;;;58.30;28.48;;;;;;;4.42;94.94;101230.34;5067998;28;20068;-87
2022/01/17 01:02:14;;;;;;;42.72;23.25;;;;;;;4.57;94.94;101224.09;5066975;28;20074;-88
2022/01/17 01:04:40;;;;;;;49.28;26.30;;;;;;;4.50;94.50;101234.78;5048551;28;20550;-87
2022/01/17 01:07:05;;;;;;;40.33;22.38;;;;;;;4.78;92.75;101226.00;5067695;28;20028;-87
2022/01/17 01:09:36;;;;;;;40.60;23.60;;;;;;;4.86;92.49;101240.44;5066017;28;20404;-88
2022/01/17 01:12:02;;;;;;;43.80;22.17;;;;;;;4.67;92.67;101240.00;5049596;28;20032;-86
2022/01/17 01:14:27;;;;;;;34.90;20.38;;;;;;;4.70;92.74;101227.97;5100500;28;20036;-87
2022/01/17 01:16:54;;;;;;;36.80;19.08;;;;;;;4.89;92.60;101231.94;5106825;28;20110;-86
2022/01/17 01:19:39;;;;;;;37.78;20.13;;;;;;;4.90;92.25;101212.00;5084207;28;20043;-87
2022/01/17 01:27:42;;;;;;;38.97;21.48;;;;;;;4.94;91.71;101213.28;5087289;28;20081;-86
2022/01/17 01:30:11;;;;;;;33.42;19.92;;;;;;;4.82;92.57;101214.81;5086026;28;20091;-87
2022/01/17 01:32:44;;;;;;;45.67;22.02;;;;;;;4.82;92.91;101215.63;5102968;28;20385;-87
2022/01/17 01:35:12;;;;;;;38.20;17.58;;;;;;;4.90;92.76;101222.81;5086012;28;20048;-87
2022/01/17 01:37:38;;;;;;;40.15;21.65;;;;;;;4.71;92.86;101227.78;5087223;28;20103;-87
2022/01/17 01:40:05;;;;;;;41.25;21.83;;;;;;;4.98;92.35;101230.78;5085903;28;20107;-86
2022/01/17 01:42:32;;;;;;;45.20;24.17;;;;;;;4.91;92.69;101246.09;5086201;28;20494;-87
2022/01/17 01:44:58;;;;;;;41.47;24.23;;;;;;;4.87;92.56;101267.25;5086155;28;20391;-88
2022/01/17 01:47:26;;;;;;;44.17;24.40;;;;;;;4.87;93.37;101269.13;5085692;28;20036;-86
2022/01/17 01:49:51;;;;;;;54.60;28.63;;;;;;;4.87;94.03;101272.66;5085844;28;20074;-87
2022/01/17 01:52:30;;;;;;;47.33;25.25;;;;;;;4.89;91.71;101276.03;5086137;28;20028;-87
2022/01/17 01:54:55;;;;;;;52.13;25.80;;;;;;;4.57;93.70;101266.47;5068540;28;20036;-86
2022/01/17 01:57:20;;;;;;;38.15;23.52;;;;;;;4.91;93.12;101254.19;5084803;28;20031;-88
2022/01/17 01:59:45;;;;;;;50.17;27.17;;;;;;;4.73;92.98;101249.22;5085238;28;20043;-87
2022/01/17 02:02:11;;;;;;;46.85;25.63;;;;;;;4.57;93.24;101247.56;5066111;28;20037;-87
2022/01/17 02:04:36;;;;;;;50.50;26.65;;;;;;;4.60;93.85;101255.28;5047590;28;20078;-86
2022/01/17 02:07:02;;;;;;;63.15;31.85;;;;;;;4.25;95.21;101253.97;5066657;28;20158;-88
2022/01/17 02:09:28;;;;;;;48.28;25.70;;;;;;;4.81;94.50;101257.22;5047192;28;20039;-87
2022/01/17 02:11:53;;;;;;;53.17;29.02;;;;;;;5.00;92.39;101250.34;5066498;28;20028;-87
2022/01/17 02:14:19;;;;;;;49.55;27.27;;;;;;;4.91;92.67;101248.78;5096104;28;20031;-87
2022/01/17 02:16:47;;;;;;;45.63;26.88;;;;;;;4.87;92.61;101244.78;5106197;28;20035;-86
2022/01/17 02:19:12;;;;;;;54.60;25.80;;;;;;;5.03;92.10;101238.31;5099238;27;20049;-87
2022/01/17 02:24:41;;;;;;;50.85;24.75;;;;;;;4.84;93.63;101234.38;5064367;28;20090;-87
2022/01/17 02:27:07;;;;;;;57.45;28.98;;;;;;;4.92;92.70;101244.22;5065490;28;20454;-87
2022/01/17 02:29:32;;;;;;;66.70;30.23;;;;;;;4.56;94.00;101249.41;5065707;28;20041;-87
2022/01/17 02:31:57;;;;;;;54.22;27.98;;;;;;;4.63;94.27;101253.06;5065198;28;20044;-87
2022/01/17 02:34:23;;;;;;;53.20;29.35;;;;;;;4.88;93.04;101250.00;5065097;28;20052;-87
2022/01/17 02:36:48;;;;;;;54.00;30.10;;;;;;;4.89;93.26;101250.84;5065671;28;20024;-87
2022/01/17 02:39:14;;;;;;;49.70;25.55;;;;;;;5.05;92.05;101246.22;5064658;28;20047;-86
2022/01/17 02:41:42;;;;;;;52.90;27.63;;;;;;;4.97;92.48;101239.09;5066061;28;20037;-88
2022/01/17 02:44:08;;;;;;;66.45;28.40;;;;;;;4.84;92.45;101234.38;5091693;28;20527;-87
2022/01/17 02:46:33;;;;;;;54.60;27.25;;;;;;;5.04;91.64;101228.34;5106292;28;20523;-87
2022/01/17 02:49:00;;;;;;;53.17;30.75;;;;;;;4.91;92.57;101229.88;5102320;28;20092;-86
2022/01/17 02:51:40;;;;;;;58.75;29.42;;;;;;;4.89;92.86;101224.66;5065638;28;20028;-87
2022/01/17 02:54:05;;;;;;;54.88;27.63;;;;;;;4.83;92.68;101221.88;5065322;28;20063;-86
2022/01/17 02:56:30;;;;;;;63.83;29.92;;;;;;;4.81;93.13;101229.34;5065000;28;20024;-86
2022/01/17 02:58:56;;;;;;;48.88;27.30;;;;;;;4.96;93.06;101226.59;5077082;28;20387;-87
2022/01/17 03:01:25;;;;;;;64.10;32.88;;;;;;;4.70;93.96;101225.28;5085149;28;20012;-86
2022/01/17 03:03:50;;;;;;;56.95;28.60;;;;;;;4.86;92.58;101224.22;5086400;28;20191;-87
2022/01/17 03:06:16;;;;;;;52.00;27.80;;;;;;;4.95;92.97;101225.75;5084542;28;20103;-87
2022/01/17 03:08:43;;;;;;;48.50;27.48;;;;;;;4.96;92.45;101227.47;5086797;28;20492;-87
2022/01/17 03:11:18;;;;;;;50.38;27.85;;;;;;;4.95;92.24;101231.16;5089753;28;20024;-87
2022/01/17 03:13:44;;;;;;;51.72;27.98;;;;;;;4.82;92.95;101236.44;5099626;28;20509;-87
2022/01/17 03:16:14;;;;;;;52.35;26.17;;;;;;;4.83;93.46;101235.41;5110075;28;20027;-87
2022/01/17 03:18:42;;;;;;;53.35;30.77;;;;;;;4.65;94.08;101225.84;5108865;28;20035;-87
2022/01/17 03:21:10;;;;;;;52.25;29.90;;;;;;;4.75;94.23;101217.44;5110365;28;20019;-87
2022/01/17 03:23:36;;;;;;;56.08;27.05;;;;;;;4.77;92.98;101221.63;5108912;28;20057;-86
2022/01/17 03:26:02;;;;;;;57.50;32.88;;;;;;;4.77;93.34;101227.03;5110035;28;20081;-87
2022/01/17 03:31:31;;;;;;;57.30;29.55;;;;;;;4.83;92.76;101246.19;5087170;28;20051;-86
2022/01/17 03:33:56;;;;;;;57.72;29.60;;;;;;;4.71;93.91;101246.69;5089404;28;20036;-87
2022/01/17 03:36:22;;;;;;;84.88;33.65;;;;;;;4.60;94.71;101249.88;5088254;28;20012;-87
2022/01/17 03:38:47;;;;;;;61.35;32.67;;;;;;;4.71;93.64;101245.84;5089567;28;20044;-86
2022/01/17 03:41:15;;;;;;;63.65;30.80;;;;;;;4.93;92.99;101248.59;5088994;28;20057;-87
2022/01/17 03:43:40;;;;;;;71.05;31.92;;;;;;;4.76;93.51;101249.66;5098822;28;20027;-86
2022/01/17 03:46:06;;;;;;;58.78;31.85;;;;;;;4.90;93.37;101250.66;5105761;28;20024;-87
2022/01/17 03:48:32;;;;;;;72.00;33.67;;;;;;;4.78;93.56;101235.94;5088158;28;20073;-87
2022/01/17 03:50:59;;;;;;;77.07;32.35;;;;;;;4.70;93.06;101245.00;5089227;28;20024;-87
2022/01/17 03:53:25;;;;;;;53.22;28.50;;;;;;;4.85;92.35;101252.25;5088164;28;20035;-87
2022/01/17 03:55:51;;;;;;;57.38;30.50;;;;;;;4.79;93.20;101249.31;5089102;28;20109;-87
2022/01/17 03:58:16;;;;;;;54.83;31.27;;;;;;;4.63;94.33;101249.50;5088199;28;20031;-87
2022/01/17 04:00:46;;;;;;;62.33;30.80;;;;;;;4.60;94.31;101244.47;5088812;28;20032;-87
2022/01/17 04:03:12;;;;;;;58.40;31.02;;;;;;;4.77;92.91;101240.53;5088917;28;20451;-87
2022/01/17 04:05:38;;;;;;;58.55;28.92;;;;;;;4.64;92.99;101237.66;5088382;28;20048;-86
2022/01/17 04:08:04;;;;;;;46.10;24.60;;;;;;;4.86;93.17;101238.53;5071214;28;20034;-87
2022/01/17 04:10:30;;;;;;;55.28;28.15;;;;;;;4.79;93.20;101249.31;5069115;28;20059;-87
2022/01/17 04:13:01;;;;;;;77.78;27.40;;;;;;;5.02;91.72;101253.69;5092288;28;20035;-87
2022/01/17 04:15:27;;;;;;;44.13;25.08;;;;;;;4.94;91.83;101256.53;5108556;28;20509;-87
2022/01/17 04:17:52;;;;;;;50.88;26.88;;;;;;;4.73;93.12;101260.00;5108831;28;20104;-87
2022/01/17 04:23:20;;;;;;;72.55;32.10;;;;;;;4.73;92.86;101260.00;5098186;28;20061;-86
2022/01/17 04:25:46;;;;;;;75.07;32.50;;;;;;;4.52;93.01;101259.75;5109143;28;20454;-86
2022/01/17 04:28:13;;;;;;;60.15;29.48;;;;;;;4.66;93.37;101260.78;5089054;28;20211;-87
2022/01/17 04:30:39;;;;;;;54.85;26.55;;;;;;;4.78;92.54;101255.72;5100737;28;20024;-87
2022/01/17 04:33:05;;;;;;;55.00;29.17;;;;;;;4.78;92.20;101258.41;5087915;28;20031;-87
2022/01/17 04:35:31;;;;;;;51.58;26.80;;;;;;;4.87;91.51;101261.84;5088010;28;20020;-86
2022/01/17 04:38:03;;;;;;;56.00;29.70;;;;;;;4.82;92.38;101279.69;5088788;28;20423;-87
2022/01/17 04:40:37;;;;;;;51.67;26.52;;;;;;;4.83;92.48;101271.38;5087917;28;20024;-87
2022/01/17 04:43:05;;;;;;;58.20;27.10;;;;;;;4.85;91.79;101279.28;5093268;28;20031;-86
2022/01/17 04:45:32;;;;;;;54.25;28.13;;;;;;;4.92;91.73;101266.72;5107834;28;20019;-86
2022/01/17 04:47:58;;;;;;;49.78;27.77;;;;;;;4.70;92.09;101263.09;5070756;28;20019;-87
2022/01/17 04:50:26;;;;;;;53.67;30.00;;;;;;;4.57;93.23;101269.16;5088237;28;20461;-87
2022/01/17 04:52:55;;;;;;;61.13;28.10;;;;;;;4.86;91.27;101254.75;5087762;28;20028;-87
2022/01/17 04:55:21;;;;;;;64.07;32.25;;;;;;;4.65;92.59;101258.25;5088155;28;20526;-87
2022/01/17 04:57:47;;;;;;;52.17;26.95;;;;;;;4.59;92.71;101256.31;5086122;28;20031;-87
2022/01/17 05:00:17;;;;;;;56.90;25.65;;;;;;;4.69;92.42;101259.56;5070098;28;20221;-86
2022/01/17 05:02:42;;;;;;;53.95;25.65;;;;;;;4.89;91.21;101265.22;5086534;28;20701;-87
2022/01/17 05:05:09;;;;;;;50.13;27.58;;;;;;;5.00;90.88;101263.84;5087981;28;20563;-86
2022/01/17 05:07:35;;;;;;;42.20;25.83;;;;;;;4.97;91.41;101261.56;5069319;28;20032;-88
2022/01/17 05:10:05;;;;;;;58.28;29.70;;;;;;;4.85;91.05;101276.59;5069124;28;20036;-87
2022/01/17 05:12:31;;;;;;;57.45;24.67;;;;;;;4.73;91.78;101276.22;5070015;28;20020;-87
2022/01/17 05:14:58;;;;;;;59.67;27.83;;;;;;;4.60;91.91;101276.88;5106629;28;20057;-86
2022/01/17 05:19:58;;;;;;;67.50;23.60;;;;;;;4.80;91.67;101298.75;5107095;28;20463;-87
2022/01/17 05:22:29;;;;;;;44.40;23.88;;;;;;;4.71;92.44;101295.34;5108040;28;20095;-86
2022/01/17 05:24:55;;;;;;;46.10;24.58;;;;;;;4.72;92.14;101286.19;5107249;28;20031;-87
2022/01/17 05:27:20;;;;;;;49.05;26.55;;;;;;;4.60;92.14;101301.19;5107340;28;20446;-87
2022/01/17 05:29:48;;;;;;;39.85;19.55;;;;;;;4.85;91.41;101312.56;5107089;28;20419;-87
2022/01/17 05:32:14;;;;;;;54.15;22.10;;;;;;;4.79;90.90;101308.75;5085873;28;20187;-86
2022/01/17 05:34:42;;;;;;;47.00;21.60;;;;;;;4.83;91.16;101301.09;5087263;28;20304;-87
2022/01/17 05:40:29;;;;;;;43.20;18.10;;;;;;;4.81;90.83;101313.13;5084747;28;20525;-87
2022/01/17 05:42:54;;;;;;;38.40;18.27;;;;;;;4.40;91.33;101305.31;5091259;28;20196;-87
2022/01/17 05:45:20;;;;;;;31.48;19.95;;;;;;;4.63;89.88;101319.75;5107122;28;20024;-87
2022/01/17 05:47:46;;;;;;;45.28;19.30;;;;;;;4.81;90.74;101322.06;5090053;28;20057;-88
2022/01/17 05:50:13;;;;;;;27.67;16.58;;;;;;;4.54;89.99;101300.09;5068258;28;20020;-88
2022/01/17 05:52:39;;;;;;;33.83;17.45;;;;;;;4.55;90.05;101308.03;5087054;28;20024;-87
2022/01/17 05:55:07;;;;;;;35.47;16.65;;;;;;;4.84;89.14;101293.84;5086842;28;20039;-87
2022/01/17 05:57:32;;;;;;;33.58;17.55;;;;;;;4.39;89.72;101294.69;5086305;28;20024;-87
2022/01/17 06:00:00;;;;;;;35.00;15.15;;;;;;;4.48;90.26;101285.47;5068529;28;20474;-87
2022/01/17 06:02:25;;;;;;;36.72;17.13;;;;;;;4.42;90.69;101287.06;5067576;28;20052;-88
2022/01/17 06:04:50;;;;;;;41.92;16.02;;;;;;;4.26;91.90;101288.06;5087093;28;20048;-87
2022/01/17 06:07:16;;;;;;;30.88;17.58;;;;;;;4.66;90.45;101284.25;5085994;28;20023;-87
2022/01/17 06:09:41;;;;;;;43.20;17.60;;;;;;;4.87;89.25;101288.03;5087026;28;20020;-87
2022/01/17 06:12:07;;;;;;;24.40;13.55;;;;;;;4.74;89.10;101292.25;5085723;28;20020;-87
2022/01/17 06:14:32;;;;;;;31.73;14.45;;;;;;;4.77;89.29;101272.97;5086010;28;20031;-86
2022/01/17 06:16:58;;;;;;;33.08;14.52;;;;;;;4.52;90.45;101270.56;5086441;28;20027;-86
2022/01/17 06:19:23;;;;;;;29.60;17.02;;;;;;;4.46;89.97;101286.66;5086035;28;20024;-87
2022/01/17 06:21:48;;;;;;;29.50;16.33;;;;;;;4.53;89.60;101288.47;5087165;28;20028;-87
2022/01/17 06:24:14;;;;;;;26.10;13.68;;;;;;;4.71;89.09;101276.41;5085825;28;20459;-87
2022/01/17 06:26:41;;;;;;;34.33;15.05;;;;;;;4.69;89.07;101278.47;5068708;28;20032;-87
2022/01/17 06:29:08;;;;;;;26.60;16.70;;;;;;;4.50;90.32;101288.81;5084936;28;20466;-87
2022/01/17 06:31:35;;;;;;;24.73;15.27;;;;;;;4.76;89.23;101282.09;5070080;28;20572;-87
2022/01/17 06:34:02;;;;;;;39.25;19.15;;;;;;;4.82;89.79;101293.19;5065806;28;20359;-87
2022/01/17 06:36:28;;;;;;;35.88;14.43;;;;;;;4.66;89.97;101281.53;5047442;28;20052;-86
2022/01/17 06:41:56;;;;;;;31.17;13.68;;;;;;;4.29;91.47;101274.19;5061198;28;20047;-87
2022/01/17 06:44:21;;;;;;;32.85;15.77;;;;;;;4.35;90.91;101264.53;5064733;28;20399;-87
2022/01/17 06:46:46;;;;;;;28.48;12.65;;;;;;;4.65;90.78;101274.47;5075033;28;20103;-87
2022/01/17 06:49:13;;;;;;;26.33;13.38;;;;;;;4.53;90.48;101266.00;5067969;28;20020;-87
2022/01/17 06:51:38;;;;;;;32.35;15.88;;;;;;;4.44;90.91;101257.16;5086281;28;20024;-87
2022/01/17 06:54:04;;;;;;;28.85;16.15;;;;;;;4.31;91.43;101258.63;5085111;28;20023;-87
2022/01/17 06:56:29;;;;;;;25.85;13.30;;;;;;;4.65;90.20;101266.38;5085695;28;20556;-87
2022/01/17 06:58:54;;;;;;;31.20;15.52;;;;;;;4.69;89.79;101275.78;5084794;28;20487;-86
2022/01/17 07:01:21;;;;;;;27.85;14.82;;;;;;;4.50;90.90;101280.72;5086734;28;20043;-86
2022/01/17 07:03:49;;;;;;;25.05;13.00;;;;;;;4.57;90.16;101288.06;5085370;28;20056;-86
2022/01/17 07:06:14;;;;;;;22.13;13.55;;;;;;;4.52;90.47;101297.56;5086342;28;20031;-86
2022/01/17 07:08:40;;;;;;;24.05;11.30;;;;;;;4.60;90.78;101295.78;5085919;28;20028;-87
2022/01/17 07:11:05;;;;;;;28.15;13.32;;;;;;;4.68;89.73;101311.91;5085099;28;20046;-87
2022/01/17 07:13:31;;;;;;;24.67;14.43;;;;;;;4.78;89.50;101334.09;5094338;28;20038;-87
2022/01/17 07:15:57;;;;;;;20.15;11.90;;;;;;;4.97;88.68;101320.19;5105177;28;20082;-87
2022/01/17 07:18:22;;;;;;;25.60;12.18;;;;;;;4.95;88.77;101306.84;5106893;28;20012;-88
2022/01/17 07:20:48;;;;;;;28.83;11.35;;;;;;;4.71;88.95;101284.53;5104761;28;20028;-87
2022/01/17 07:23:13;;;;;;;28.95;13.43;;;;;;;4.67;89.34;101283.22;5088323;28;20067;-88
2022/01/17 07:25:39;;;;;;;32.00;12.57;;;;;;;4.67;89.41;101277.81;5105842;28;20063;-87
2022/01/17 07:28:08;;;;;;;31.65;15.35;;;;;;;4.76;89.93;101292.91;5105200;28;20869;-86
2022/01/17 07:30:35;;;;;;;28.70;14.15;;;;;;;4.77;89.03;101293.75;5098890;28;20059;-87
2022/01/17 07:33:01;;;;;;;27.90;14.75;;;;;;;4.74;89.83;101300.34;5067075;28;20034;-88
2022/01/17 07:35:27;;;;;;;26.45;14.00;;;;;;;4.66;89.60;101313.97;5085509;28;20044;-87
2022/01/17 07:37:52;;;;;;;26.50;11.88;;;;;;;4.55;89.87;101312.59;5083038;28;20108;-87
2022/01/17 07:40:34;;;;;;;34.10;13.10;;;;;;;4.81;89.83;101303.16;5084844;28;20483;-86
2022/01/17 07:42:59;;;;;;;31.30;16.20;;;;;;;4.64;90.15;101311.44;5081526;28;20188;-87
2022/01/17 07:45:26;;;;;;;29.50;15.35;;;;;;;4.71;90.01;101316.97;5084834;28;20119;-87
2022/01/17 07:50:20;;;;;;;29.08;16.52;;;;;;;4.69;90.09;101335.22;5105304;28;20032;-87
2022/01/17 07:52:47;;;;;;;38.40;18.95;;;;;;;4.67;90.38;101342.66;5106292;28;20028;-87
2022/01/17 07:55:13;;;;;;;29.80;15.55;;;;;;;4.73;89.56;101347.34;5106697;28;20035;-87
2022/01/17 07:57:41;;;;;;;27.75;17.60;;;;;;;4.68;90.17;101344.34;5087921;28;20012;-87
2022/01/17 08:00:09;;;;;;;33.78;15.57;;;;;;;5.07;88.97;101336.94;5086406;28;20086;-87
2022/01/17 08:02:35;;;;;;;32.75;18.27;;;;;;;4.63;90.20;101344.91;5086738;28;20019;-87
2022/01/17 08:05:02;;;;;;;36.88;17.23;;;;;;;4.88;90.10;101351.91;5087113;28;20050;-87
2022/01/17 08:07:27;;;;;;;30.58;16.67;;;;;;;4.84;89.83;101356.81;5079260;28;20475;-87
2022/01/17 08:09:53;;;;;;;34.08;17.10;;;;;;;4.86;89.94;101356.66;5069067;28;20040;-87
2022/01/17 08:12:18;;;;;;;36.65;17.90;;;;;;;4.88;90.22;101355.41;5049529;28;20032;-87
2022/01/17 08:14:43;;;;;;;37.03;16.97;;;;;;;4.91;89.66;101373.13;5107744;28;20065;-86
2022/01/17 08:17:09;;;;;;;31.63;17.92;;;;;;;4.61;90.17;101370.44;5108505;28;20248;-87
2022/01/17 08:19:35;;;;;;;34.97;20.00;;;;;;;4.47;91.12;101372.94;5109745;28;20035;-87
2022/01/17 08:22:02;;;;;;;41.55;17.92;;;;;;;4.78;90.19;101377.31;5109418;28;20039;-87
2022/01/17 08:27:31;;;;;;;33.70;20.33;;;;;;;4.84;89.90;101366.81;5104290;28;20066;-87
2022/01/17 08:29:57;;;;;;;39.78;19.17;;;;;;;4.67;90.82;101367.00;5108177;28;20039;-87
2022/01/17 08:32:22;;;;;;;31.20;19.55;;;;;;;4.58;91.27;101371.63;5108911;28;20032;-87
2022/01/17 08:34:47;;;;;;;36.58;19.38;;;;;;;4.91;90.50;101356.91;5089969;28;20059;-87
2022/01/17 08:37:13;;;;;;;31.80;16.13;;;;;;;5.01;89.91;101360.16;5108491;28;20554;-87
2022/01/17 08:39:38;;;;;;;28.88;17.13;;;;;;;5.20;89.46;101357.06;5109344;28;20451;-87
2022/01/17 08:42:10;;;;;;;36.70;17.17;;;;;;;5.05;90.49;101343.56;5108034;28;20059;-88
2022/01/17 08:44:36;;;;;;;30.98;16.30;;;;;;;5.21;89.26;101337.94;5090698;28;20044;-87
2022/01/17 08:47:02;;;;;;;33.13;18.35;;;;;;;4.88;91.13;101343.78;5086673;28;20086;-88
2022/01/17 08:49:27;;;;;;;35.13;19.50;;;;;;;4.84;91.15;101334.38;5071757;28;20020;-87
2022/01/17 08:51:52;;;;;;;31.73;17.70;;;;;;;4.96;90.80;101343.69;5066959;28;20030;-87
2022/01/17 08:54:18;;;;;;;32.78;17.40;;;;;;;4.77;90.83;101337.81;5067164;28;20028;-87
2022/01/17 08:56:43;;;;;;;38.03;20.02;;;;;;;4.87;90.49;101359.16;5067742;28;20024;-87
2022/01/17 08:59:08;;;;;;;36.97;18.52;;;;;;;4.79;91.28;101368.22;5066038;28;20064;-87
2022/01/17 09:01:34;;;;;;;40.90;21.98;;;;;;;5.04;90.33;101374.34;5083246;28;20016;-87
2022/01/17 09:03:59;;;;;;;35.05;22.02;;;;;;;5.10;90.06;101370.88;5086685;28;20538;-87
2022/01/17 09:06:26;;;;;;;35.38;18.35;;;;;;;5.21;89.42;101374.94;5084286;28;20059;-87
2022/01/17 09:08:51;;;;;;;37.85;19.48;;;;;;;4.84;90.86;101370.31;5088865;28;20036;-88
2022/01/17 09:11:16;;;;;;;36.28;17.75;;;;;;;5.02;90.47;101382.66;5071420;28;20040;-87
2022/01/17 09:13:42;;;;;;;39.05;18.20;;;;;;;5.33;89.25;101383.44;5089406;28;20024;-87
2022/01/17 09:16:08;;;;;;;32.15;18.70;;;;;;;5.05;90.38;101397.63;5067914;28;20028;-88
2022/01/17 09:18:34;;;;;;;40.55;21.52;;;;;;;5.25;90.02;101404.16;5087688;28;20024;-87
2022/01/17 09:20:59;;;;;;;36.90;20.00;;;;;;;5.00;92.04;101390.09;5084908;28;20432;-87
2022/01/17 09:23:25;;;;;;;38.00;18.70;;;;;;;4.85;91.55;101384.69;5069520;28;20031;-87
2022/01/17 09:25:51;;;;;;;35.15;19.60;;;;;;;5.22;90.13;101366.69;5068092;28;20479;-87
2022/01/17 09:28:16;;;;;;;38.10;19.98;;;;;;;5.05;91.51;101371.44;5086931;28;20505;-87
2022/01/17 09:30:42;;;;;;;34.10;19.00;;;;;;;5.31;90.58;101369.28;5085651;28;20096;-88
2022/01/17 09:33:07;;;;;;;33.88;18.63;;;;;;;5.42;90.02;101354.41;5086925;28;20085;-87
2022/01/17 09:35:33;;;;;;;43.72;21.52;;;;;;;5.14;90.81;101362.22;5086918;28;20075;-88
2022/01/17 09:37:59;;;;;;;39.88;22.33;;;;;;;4.89;91.59;101375.19;5085877;28;20495;-86
2022/01/17 09:40:25;;;;;;;46.42;24.30;;;;;;;4.91;91.95;101383.94;5087303;28;20035;-87
2022/01/17 09:42:50;;;;;;;34.80;23.40;;;;;;;4.94;91.46;101397.09;5088944;28;20074;-87
2022/01/17 09:48:06;;;;;;;37.40;22.17;;;;;;;5.33;89.59;101405.91;5085968;28;20108;-88
2022/01/17 09:50:34;;;;;;;44.60;24.00;;;;;;;4.95;90.52;101404.16;5086712;28;20020;-87
2022/01/17 09:53:02;;;;;;;36.53;22.63;;;;;;;5.16;90.24;101415.25;5087302;28;20023;-87
2022/01/17 09:55:29;;;;;;;33.40;20.08;;;;;;;5.38;89.31;101426.97;5085461;28;20365;-87
2022/01/17 09:58:00;;;;;;;45.45;22.38;;;;;;;5.07;89.84;101428.03;5087198;28;20477;-88
2022/01/17 10:00:28;;;;;;;44.63;22.25;;;;;;;5.14;89.74;101429.81;5085366;28;20109;-88
2022/01/17 10:02:56;;;;;;;42.60;23.88;;;;;;;4.94;91.34;101450.31;5083597;28;20438;-87
2022/01/17 10:05:24;;;;;;;38.00;21.17;;;;;;;4.83;91.09;101428.13;5086445;28;20024;-88
2022/01/17 10:07:49;;;;;;;36.67;23.90;;;;;;;4.99;91.70;101432.50;5085942;28;20249;-88
2022/01/17 10:11:02;;;;;;;40.13;21.83;;;;;;;5.17;90.58;101454.78;5087310;28;20044;-88
2022/01/17 10:13:38;;;;;;;36.30;22.30;;;;;;;4.99;90.85;101447.88;5093875;28;20038;-87
2022/01/17 10:16:09;;;;;;;35.35;21.63;;;;;;;4.88;91.32;101435.69;5107494;28;20027;-87
2022/01/17 10:18:42;;;;;;;41.13;21.40;;;;;;;5.27;91.13;101449.94;5106081;28;20069;-88
2022/01/17 10:21:17;;;;;;;36.78;19.50;;;;;;;5.19;91.77;101463.53;5088780;28;20031;-88
2022/01/17 10:26:49;;;;;;;38.10;19.92;;;;;;;5.12;92.17;101461.63;5065414;28;20824;-87
2022/01/17 10:29:39;;;;;;;37.50;21.70;;;;;;;4.96;92.02;101442.88;5065334;28;20040;-87
2022/01/17 10:34:56;;;;;;;43.40;20.05;;;;;;;5.04;93.16;101444.63;5084588;28;20090;-87
2022/01/17 10:37:25;;;;;;;41.33;23.33;;;;;;;5.07;92.64;101444.25;5086149;28;20024;-88
2022/01/17 10:39:54;;;;;;;42.75;20.40;;;;;;;4.84;93.43;101427.09;5079450;28;20040;-89
2022/01/17 10:42:41;;;;;;;36.33;21.38;;;;;;;4.86;94.20;101432.31;5085372;28;20032;-88
2022/01/17 10:45:14;;;;;;;50.47;24.75;;;;;;;4.59;95.00;101430.06;5083957;28;20038;-87
2022/01/17 10:47:43;;;;;;;43.80;23.02;;;;;;;4.87;94.59;101415.91;5084300;28;20044;-87
2022/01/17 10:50:15;;;;;;;35.17;20.90;;;;;;;4.87;94.31;101417.78;5085637;28;20031;-88
2022/01/17 10:52:43;;;;;;;42.38;23.45;;;;;;;5.08;93.62;101417.03;5066766;28;20567;-88
2022/01/17 10:55:13;;;;;;;37.65;24.10;;;;;;;5.02;93.14;101415.09;5085361;28;20027;-88
2022/01/17 10:57:42;;;;;;;37.10;22.80;;;;;;;5.03;93.32;101422.16;5086109;28;20036;-88
2022/01/17 11:00:14;;;;;;;36.55;20.60;;;;;;;5.18;93.00;101432.13;5084480;28;20044;-88
2022/01/17 11:02:55;;;;;;;40.40;19.77;;;;;;;5.25;92.50;101436.59;5086271;28;20290;-88
2022/01/17 11:05:22;;;;;;;32.55;20.52;;;;;;;5.31;92.60;101448.53;5084289;28;20036;-88
2022/01/17 11:07:52;;;;;;;30.30;18.35;;;;;;;5.19;92.96;101471.66;5086170;28;20489;-89
2022/01/17 11:10:31;;;;;;;38.78;21.50;;;;;;;5.05;93.87;101463.38;5086166;28;20122;-88
2022/01/17 11:12:58;;;;;;;33.28;18.98;;;;;;;5.21;93.65;101475.00;5084505;28;20016;-87
2022/01/17 11:15:25;;;;;;;34.08;19.73;;;;;;;5.13;94.29;101479.50;5068041;28;20177;-88
2022/01/17 11:17:56;;;;;;;39.13;18.85;;;;;;;5.27;93.14;101481.56;5066405;28;20041;-88
2022/01/17 11:20:25;;;;;;;35.67;21.65;;;;;;;4.98;93.96;101479.47;5085920;28;20028;-88
2022/01/17 11:22:54;;;;;;;38.65;22.55;;;;;;;5.22;93.76;101469.44;5084906;28;20020;-88
2022/01/17 11:25:22;;;;;;;40.28;23.48;;;;;;;4.94;94.23;101472.78;5085152;28;20032;-88
2022/01/17 11:27:49;;;;;;;36.05;21.35;;;;;;;5.18;94.07;101456.47;5085503;28;20039;-87
2022/01/17 11:30:16;;;;;;;36.60;19.20;;;;;;;5.06;94.68;101448.00;5086498;28;20035;-88
2022/01/17 11:32:42;;;;;;;66.03;21.33;;;;;;;4.98;95.02;101447.03;5071733;28;20500;-88
2022/01/17 11:35:08;;;;;;;51.15;20.77;;;;;;;4.97;94.51;101445.38;5087035;28;20039;-87
2022/01/17 11:37:38;;;;;;;27.70;17.98;;;;;;;5.21;94.18;101442.56;5090048;28;20032;-86
2022/01/17 11:40:06;;;;;;;41.72;20.77;;;;;;;5.21;93.95;101446.13;5088799;28;20024;-88
2022/01/17 11:42:41;;;;;;;32.15;17.65;;;;;;;5.43;92.84;101448.06;5071314;28;20020;-88
2022/01/17 11:45:22;;;;;;;53.53;23.52;;;;;;;5.05;95.15;101451.69;5091696;28;20081;-87
2022/01/17 11:47:55;;;;;;;38.95;22.48;;;;;;;5.15;93.88;101449.56;5090005;28;20084;-88
2022/01/17 11:50:30;;;;;;;34.58;20.08;;;;;;;5.54;92.92;101435.91;5109784;28;20561;-88
2022/01/17 11:53:11;;;;;;;32.15;19.98;;;;;;;5.24;93.44;101434.94;5085162;28;20054;-88
2022/01/17 11:55:42;;;;;;;42.03;22.45;;;;;;;5.10;93.75;101446.59;5070591;28;20262;-88
2022/01/17 11:58:31;;;;;;;38.38;21.25;;;;;;;5.39;93.16;101461.09;5089040;28;20029;-87
2022/01/17 12:01:02;;;;;;;48.63;24.02;;;;;;;5.36;93.70;101464.19;5087382;28;20027;-87
2022/01/17 12:03:38;;;;;;;54.15;23.05;;;;;;;5.48;94.43;101456.44;5089123;28;20115;-86